Time;durP1;ratioP1;P1;durP2;ratioP2;P2;SDS_P1;SDS_P2;PMS_P1;PMS_P2;Temp;Humidity;BMP_temperature;BMP_pressure;BME280_temperature;BME280_humidity;BME280_pressure;Samples;Min_cycle;Max_cycle;Signal;HPM_P1;HPM_P2
2021/08/15 00:00:44;;;;;;;14.90;13.10;;;20.80;99.90;20.40;97029.00;;;;5085337;28;20223;-66
2021/08/15 00:03:33;;;;;;;16.73;14.07;;;20.70;99.90;20.30;97032.00;;;;5071936;28;20723;-67
2021/08/15 00:06:23;;;;;;;12.83;11.30;;;20.60;99.90;20.40;97033.00;;;;5087393;28;20195;-66
2021/08/15 00:09:12;;;;;;;13.37;12.00;;;20.60;99.90;20.50;97023.00;;;;5088277;28;20579;-66
2021/08/15 00:12:06;;;;;;;15.63;12.47;;;20.60;99.90;20.60;97031.00;;;;5086967;28;20222;-67
2021/08/15 00:14:56;;;;;;;15.77;12.47;;;20.60;99.90;20.80;97027.00;;;;5087439;28;20195;-65
2021/08/15 00:17:45;;;;;;;15.33;13.30;;;20.70;99.90;20.80;97033.00;;;;5068725;28;20225;-66
2021/08/15 00:20:34;;;;;;;12.37;11.17;;;20.70;99.90;20.80;97031.00;;;;5087443;28;20248;-66
2021/08/15 00:23:24;;;;;;;13.80;11.87;;;20.80;99.90;20.60;97035.00;;;;5087141;28;20242;-66
2021/08/15 00:26:13;;;;;;;13.30;11.93;;;20.80;99.90;20.50;97029.00;;;;5087561;28;20207;-66
2021/08/15 00:29:02;;;;;;;17.60;12.63;;;20.70;99.90;20.40;97032.00;;;;5088298;28;20218;-66
2021/08/15 00:31:51;;;;;;;14.90;13.33;;;20.70;99.90;20.40;97037.00;;;;5086788;28;20239;-66
2021/08/15 00:34:40;;;;;;;14.27;12.27;;;20.60;99.90;20.30;97039.00;;;;5087061;28;20737;-66
2021/08/15 00:37:29;;;;;;;13.63;11.90;;;20.60;99.90;20.50;97037.00;;;;5088096;28;20215;-66
2021/08/15 00:40:19;;;;;;;12.83;11.27;;;20.50;99.90;20.70;97025.00;;;;5087142;28;20195;-66
2021/08/15 00:43:09;;;;;;;14.70;13.30;;;20.60;99.90;20.90;97019.00;;;;5086774;28;20238;-66
2021/08/15 00:45:58;;;;;;;13.47;12.10;;;20.70;99.90;21.00;97023.00;;;;5074465;28;20582;-67
2021/08/15 00:48:47;;;;;;;13.83;12.43;;;20.80;99.90;21.00;97027.00;;;;5066273;28;20211;-66
2021/08/15 00:51:36;;;;;;;12.83;11.57;;;20.90;99.90;21.10;97026.00;;;;5065217;28;20216;-66
2021/08/15 00:54:25;;;;;;;13.47;11.90;;;21.00;99.90;21.00;97020.00;;;;5065603;28;20202;-66
2021/08/15 00:57:15;;;;;;;13.23;11.63;;;20.90;99.90;20.70;97022.00;;;;5067349;28;20199;-66
2021/08/15 01:00:06;;;;;;;11.67;10.43;;;20.90;99.90;20.50;97019.00;;;;5066145;28;20203;-66
2021/08/15 01:02:55;;;;;;;13.67;12.27;;;20.90;99.90;20.30;97017.00;;;;5065807;28;20261;-66
2021/08/15 01:05:44;;;;;;;12.87;11.57;;;20.70;99.90;20.40;97021.00;;;;5067090;28;20215;-66
2021/08/15 01:08:34;;;;;;;14.43;12.93;;;20.70;99.90;20.50;97026.00;;;;5072382;28;20199;-66
2021/08/15 01:11:23;;;;;;;13.63;12.20;;;20.70;99.90;20.50;97025.00;;;;5087288;28;20713;-66
2021/08/15 01:14:13;;;;;;;13.80;12.50;;;20.60;99.90;20.70;97006.00;;;;5086570;28;20203;-65
2021/08/15 01:17:02;;;;;;;15.37;12.17;;;20.70;99.90;20.70;97010.00;;;;5086390;28;20200;-67
2021/08/15 01:19:54;;;;;;;13.17;11.87;;;20.70;99.90;20.50;97009.00;;;;5085619;28;20669;-66
2021/08/15 01:22:45;;;;;;;15.50;13.60;;;20.70;99.90;20.50;97003.00;;;;5064757;28;20267;-66
2021/08/15 01:25:34;;;;;;;14.37;11.97;;;20.70;99.90;20.20;96999.00;;;;5086052;28;20199;-66
2021/08/15 01:28:25;;;;;;;14.93;11.63;;;20.60;99.90;20.30;97000.00;;;;5068035;28;20209;-66
2021/08/15 01:31:14;;;;;;;20.13;12.30;;;20.50;99.90;20.30;96998.00;;;;5084784;28;20231;-66
2021/08/15 01:34:03;;;;;;;17.00;13.30;;;20.50;99.90;20.30;97008.00;;;;5085973;28;20231;-66
2021/08/15 01:36:52;;;;;;;15.97;12.80;;;20.40;99.90;20.30;97003.00;;;;5086184;28;20195;-66
2021/08/15 01:39:42;;;;;;;15.00;13.17;;;20.50;99.90;20.30;97004.00;;;;5086827;28;20203;-66
2021/08/15 01:42:31;;;;;;;14.53;13.23;;;20.50;99.90;20.40;97002.00;;;;5085526;28;20227;-66
2021/08/15 01:45:22;;;;;;;13.77;12.37;;;20.50;99.90;20.40;97002.00;;;;5079647;28;20196;-66
2021/08/15 01:48:10;;;;;;;14.70;12.83;;;20.50;99.90;20.50;97001.00;;;;5066146;28;20674;-66
2021/08/15 01:50:59;;;;;;;12.90;11.60;;;20.50;99.90;20.50;96997.00;;;;5065506;28;20234;-66
2021/08/15 01:53:50;;;;;;;15.53;11.73;;;20.50;99.90;20.60;96984.00;;;;5064684;28;20370;-66
2021/08/15 01:56:39;;;;;;;15.43;12.53;;;20.60;99.90;20.50;96989.00;;;;5066673;28;20211;-65
2021/08/15 01:59:28;;;;;;;14.57;13.27;;;20.60;99.90;20.70;96969.00;;;;5065060;28;20231;-67
2021/08/15 02:02:18;;;;;;;13.83;12.50;;;20.60;99.90;20.80;96977.00;;;;5065582;28;20717;-66
2021/08/15 02:05:09;;;;;;;15.00;12.53;;;20.70;99.90;20.70;96975.00;;;;5066004;28;20701;-66
2021/08/15 02:07:58;;;;;;;14.37;12.77;;;20.70;99.90;20.20;96986.00;;;;5064264;28;20200;-67
2021/08/15 02:10:47;;;;;;;13.23;11.93;;;20.70;99.90;20.40;96998.00;;;;5066102;28;20211;-66
2021/08/15 02:13:36;;;;;;;13.63;12.20;;;20.60;99.90;20.40;96982.00;;;;5064573;28;20220;-67
2021/08/15 02:16:25;;;;;;;14.07;12.33;;;20.60;99.90;20.60;96970.00;;;;5063983;28;20207;-66
2021/08/15 02:19:15;;;;;;;13.07;11.70;;;20.60;99.90;20.70;96960.00;;;;5066147;28;20204;-66
2021/08/15 02:22:04;;;;;;;14.77;13.20;;;20.60;99.90;20.70;96951.00;;;;5065771;28;20555;-66
2021/08/15 02:24:54;;;;;;;14.20;12.80;;;20.60;99.90;20.70;96952.00;;;;5065393;28;20226;-66
2021/08/15 02:27:43;;;;;;;14.10;12.60;;;20.70;99.90;20.50;96976.00;;;;5065176;28;20215;-67
2021/08/15 02:30:33;;;;;;;13.13;11.90;;;20.60;99.90;20.50;96968.00;;;;5065352;28;20549;-67
2021/08/15 02:33:22;;;;;;;14.23;12.57;;;20.60;99.90;20.60;96952.00;;;;5064984;28;20219;-67
2021/08/15 02:36:12;;;;;;;13.13;11.00;;;20.60;99.90;20.70;96935.00;;;;5064806;28;20204;-67
2021/08/15 02:39:01;;;;;;;16.33;13.80;;;20.70;99.90;20.70;96938.00;;;;5066199;28;20199;-67
2021/08/15 02:41:50;;;;;;;15.90;12.77;;;20.70;99.90;20.40;96943.00;;;;5064834;28;20239;-67
2021/08/15 02:44:39;;;;;;;14.63;13.23;;;20.70;99.90;20.40;96956.00;;;;5064233;28;20215;-66
2021/08/15 02:47:28;;;;;;;13.20;11.83;;;20.60;99.90;20.40;96962.00;;;;5064802;28;20196;-67
2021/08/15 02:50:18;;;;;;;13.83;12.43;;;20.60;99.90;20.50;96955.00;;;;5064786;28;20689;-67
2021/08/15 02:53:08;;;;;;;15.47;12.07;;;20.60;99.90;20.50;96958.00;;;;5065338;28;20589;-66
2021/08/15 02:55:57;;;;;;;12.90;11.63;;;20.60;99.90;20.50;96953.00;;;;5045583;28;20249;-66
2021/08/15 02:58:46;;;;;;;16.03;12.80;;;20.60;99.90;20.50;96957.00;;;;5046043;28;20207;-66
2021/08/15 03:01:34;;;;;;;14.00;12.67;;;20.60;99.90;20.60;96951.00;;;;5064090;28;20228;-66
2021/08/15 03:04:23;;;;;;;14.77;13.37;;;20.60;99.90;20.60;96953.00;;;;5065016;28;20223;-66
2021/08/15 03:07:12;;;;;;;14.90;13.00;;;20.60;99.90;20.60;96945.00;;;;5042293;28;20680;-68
2021/08/15 03:10:04;;;;;;;15.27;12.93;;;20.60;99.90;20.30;96953.00;;;;5082577;28;20203;-67
2021/08/15 03:12:53;;;;;;;16.30;13.67;;;20.60;99.90;20.30;96945.00;;;;5085146;28;20288;-67
2021/08/15 03:15:42;;;;;;;15.53;13.87;;;20.50;99.90;20.30;96950.00;;;;5082913;28;20206;-67
2021/08/15 03:18:31;;;;;;;15.50;13.37;;;20.50;99.90;20.30;96949.00;;;;5083979;28;20234;-66
2021/08/15 03:21:20;;;;;;;15.83;13.50;;;20.50;99.90;20.20;96934.00;;;;5083559;28;20226;-66
2021/08/15 03:24:09;;;;;;;14.93;13.37;;;20.50;99.90;20.20;96938.00;;;;5084655;28;20230;-66
2021/08/15 03:27:00;;;;;;;16.37;14.63;;;20.40;99.90;20.20;96937.00;;;;5085365;28;20205;-66
2021/08/15 03:29:49;;;;;;;16.30;13.53;;;20.40;99.90;20.20;96936.00;;;;5083616;28;20190;-66
2021/08/15 03:32:38;;;;;;;13.87;12.53;;;20.30;99.90;20.10;96948.00;;;;5084125;28;20241;-66
2021/08/15 03:35:27;;;;;;;16.90;13.80;;;20.30;99.90;20.20;96936.00;;;;5085162;28;20195;-66
2021/08/15 03:38:16;;;;;;;16.33;14.00;;;20.30;99.90;20.20;96941.00;;;;5075772;28;20227;-66
2021/08/15 03:41:04;;;;;;;18.67;13.80;;;20.30;99.90;20.20;96936.00;;;;5084123;28;20223;-66
2021/08/15 03:43:55;;;;;;;15.43;13.80;;;20.30;99.90;20.10;96935.00;;;;5083930;28;20229;-67
2021/08/15 03:46:44;;;;;;;15.10;13.67;;;20.30;99.90;20.00;96934.00;;;;5084312;28;20217;-68
2021/08/15 03:49:33;;;;;;;14.53;13.13;;;20.20;99.90;20.20;96938.00;;;;5085260;28;20203;-67
2021/08/15 03:52:22;;;;;;;16.10;14.47;;;20.20;99.90;20.30;96937.00;;;;5083297;28;20223;-66
2021/08/15 03:55:12;;;;;;;15.77;14.23;;;20.30;99.90;20.40;96934.00;;;;5063161;28;20192;-66
2021/08/15 03:58:00;;;;;;;16.37;14.70;;;20.30;99.90;20.50;96924.00;;;;5064386;28;20193;-66
2021/08/15 04:00:51;;;;;;;19.10;14.07;;;20.40;99.90;20.30;96925.00;;;;5059576;28;20239;-66
2021/08/15 04:03:40;;;;;;;15.67;12.50;;;20.40;99.90;20.00;96926.00;;;;5063744;28;20224;-66
2021/08/15 04:06:28;;;;;;;16.77;15.00;;;20.30;99.90;20.00;96924.00;;;;5064796;28;20207;-67
2021/08/15 04:09:17;;;;;;;19.13;14.27;;;20.30;99.90;20.10;96925.00;;;;5064709;28;20587;-67
2021/08/15 04:12:07;;;;;;;14.40;12.90;;;20.20;99.90;20.20;96923.00;;;;5084063;28;20215;-67
2021/08/15 04:14:56;;;;;;;15.00;13.50;;;20.20;99.90;20.20;96926.00;;;;5062839;28;20602;-67
2021/08/15 04:17:46;;;;;;;14.93;13.43;;;20.30;99.90;20.10;96925.00;;;;5084723;28;20323;-67
2021/08/15 04:20:35;;;;;;;15.13;13.50;;;20.30;99.90;20.10;96926.00;;;;5086682;28;20565;-67
2021/08/15 04:23:26;;;;;;;15.07;13.30;;;20.20;99.90;20.10;96924.00;;;;5088616;28;20200;-67
2021/08/15 04:26:15;;;;;;;17.00;15.00;;;20.20;99.90;20.30;96914.00;;;;5087787;28;20199;-67
2021/08/15 04:29:04;;;;;;;15.87;14.20;;;20.20;99.90;20.30;96917.00;;;;5088081;28;20203;-68
2021/08/15 04:31:53;;;;;;;14.90;13.43;;;20.30;99.90;20.30;96914.00;;;;5087298;28;20225;-67
2021/08/15 04:34:43;;;;;;;16.40;14.67;;;20.30;99.90;20.30;96908.00;;;;5087656;28;20238;-67
2021/08/15 04:37:32;;;;;;;15.93;14.30;;;20.40;99.90;20.20;96915.00;;;;5086500;28;20284;-68
2021/08/15 04:40:21;;;;;;;14.90;13.40;;;20.30;99.90;20.20;96922.00;;;;5088525;28;20195;-68
2021/08/15 04:43:10;;;;;;;16.90;13.20;;;20.30;99.90;20.20;96914.00;;;;5087806;28;20215;-67
2021/08/15 04:45:59;;;;;;;14.53;13.13;;;19.30;99.90;20.20;96921.00;;;;5074273;28;20216;-67
2021/08/15 04:48:48;;;;;;;16.27;13.33;;;20.30;99.90;20.20;96911.00;;;;5065773;28;20219;-67
2021/08/15 04:51:38;;;;;;;14.77;13.27;;;20.30;99.90;20.20;96908.00;;;;5066859;28;20223;-67
2021/08/15 04:54:27;;;;;;;15.30;13.53;;;20.30;99.90;20.40;96908.00;;;;5066650;28;20686;-67
2021/08/15 04:57:16;;;;;;;16.47;13.87;;;20.30;99.90;20.50;96914.00;;;;5065142;28;20208;-66
2021/08/15 05:00:49;;;;;;;14.80;13.23;;;20.40;99.90;20.40;96916.00;;;;5067662;28;20298;-67
2021/08/15 05:03:38;;;;;;;14.17;12.73;;;20.40;99.90;20.50;96917.00;;;;5064398;28;20219;-67
2021/08/15 05:06:27;;;;;;;16.27;14.73;;;20.50;99.90;20.70;96924.00;;;;5067150;28;20226;-67
2021/08/15 05:09:18;;;;;;;14.97;13.57;;;20.60;99.90;20.90;96924.00;;;;5067870;28;20725;-67
2021/08/15 05:12:07;;;;;;;16.03;13.83;;;20.60;99.90;21.10;96923.00;;;;5066560;28;20220;-66
2021/08/15 05:14:56;;;;;;;13.53;12.23;;;20.80;99.90;21.00;96919.00;;;;5066286;28;20242;-66
2021/08/15 05:17:45;;;;;;;14.90;12.87;;;20.90;99.90;20.90;96915.00;;;;5064999;28;20229;-68
2021/08/15 05:20:35;;;;;;;16.20;13.33;;;20.90;99.90;21.10;96920.00;;;;5062382;28;20204;-68
2021/08/15 05:23:24;;;;;;;17.40;13.60;;;20.90;99.90;21.30;96922.00;;;;5065433;28;20200;-69
2021/08/15 05:26:15;;;;;;;15.00;13.47;;;21.10;99.90;21.30;96922.00;;;;5085971;28;20223;-69
2021/08/15 05:29:04;;;;;;;13.90;12.50;;;21.20;99.90;21.30;96919.00;;;;5067349;28;20599;-69
2021/08/15 05:31:53;;;;;;;14.50;13.00;;;21.30;99.90;21.20;96914.00;;;;5065678;28;20265;-69
2021/08/15 05:34:42;;;;;;;14.67;11.97;;;21.30;99.90;21.20;96924.00;;;;5065352;28;20671;-69
2021/08/15 05:37:31;;;;;;;15.87;12.17;;;21.30;99.90;21.30;96926.00;;;;5067901;28;20215;-69
2021/08/15 05:40:20;;;;;;;13.03;11.73;;;21.30;99.90;21.40;96929.00;;;;5085569;28;20585;-68
2021/08/15 05:43:10;;;;;;;12.80;11.60;;;21.30;99.90;21.70;96933.00;;;;5086719;28;20217;-68
2021/08/15 05:45:59;;;;;;;15.07;12.33;;;21.50;99.90;21.90;96935.00;;;;5053512;28;20586;-69
2021/08/15 05:48:48;;;;;;;13.03;11.80;;;21.60;99.90;21.90;96930.00;;;;5046858;28;20309;-68
2021/08/15 05:51:37;;;;;;;13.23;12.00;;;21.70;99.90;22.10;96932.00;;;;5046932;28;20604;-68
2021/08/15 05:54:26;;;;;;;14.50;12.47;;;21.80;99.90;22.20;96926.00;;;;5038207;28;20208;-68
2021/08/15 05:57:15;;;;;;;13.37;11.80;;;21.90;99.90;22.30;96930.00;;;;5065518;28;20204;-69
2021/08/15 06:00:07;;;;;;;16.80;13.57;;;22.00;99.90;22.40;96930.00;;;;5065419;28;20210;-69
2021/08/15 06:02:56;;;;;;;14.30;12.73;;;22.10;99.90;22.60;96932.00;;;;5065003;28;20208;-69
2021/08/15 06:05:45;;;;;;;15.10;12.67;;;22.30;99.90;22.60;96935.00;;;;5064724;28;20602;-67
2021/08/15 06:08:34;;;;;;;13.83;12.43;;;22.30;99.90;22.70;96935.00;;;;5065321;28;20195;-69
2021/08/15 06:11:23;;;;;;;15.10;13.37;;;22.40;99.90;22.80;96933.00;;;;5066083;28;20733;-68
2021/08/15 06:14:12;;;;;;;13.30;11.30;;;22.50;99.90;22.90;96937.00;;;;5064920;28;20211;-68
2021/08/15 06:17:04;;;;;;;14.83;13.47;;;22.70;99.90;22.90;96936.00;;;;5065396;28;20630;-69
2021/08/15 06:19:53;;;;;;;14.33;12.47;;;22.70;99.90;23.00;96932.00;;;;5078676;28;20247;-69
2021/08/15 06:22:45;;;;;;;15.50;12.13;;;22.80;99.90;23.00;96934.00;;;;5076589;28;20711;-67
2021/08/15 06:25:35;;;;;;;14.87;13.30;;;22.90;99.90;23.00;96938.00;;;;5085907;28;20226;-68
2021/08/15 06:28:23;;;;;;;14.27;12.20;;;22.90;99.90;23.10;96928.00;;;;5065398;28;20226;-68
2021/08/15 06:31:12;;;;;;;14.00;11.40;;;23.00;99.90;23.20;96934.00;;;;5065742;28;20579;-68
2021/08/15 06:34:03;;;;;;;12.47;11.17;;;23.10;99.90;23.50;96938.00;;;;5065028;28;20204;-68
2021/08/15 06:36:52;;;;;;;14.50;13.00;;;23.20;99.90;23.70;96932.00;;;;5065567;28;20203;-68
2021/08/15 06:39:41;;;;;;;13.93;11.70;;;23.30;99.90;23.80;96929.00;;;;5066790;28;20204;-68
2021/08/15 06:42:30;;;;;;;13.43;11.77;;;23.40;99.90;23.90;96925.00;;;;5064370;28;20570;-68
2021/08/15 06:45:19;;;;;;;12.63;11.03;;;23.50;99.90;23.90;96925.00;;;;5064554;28;20227;-68
2021/08/15 06:48:09;;;;;;;13.90;12.50;;;23.60;99.90;23.70;96933.00;;;;5065076;28;20203;-69
2021/08/15 06:50:59;;;;;;;14.77;13.33;;;23.60;99.90;23.70;96938.00;;;;5065450;28;20224;-69
2021/08/15 06:53:48;;;;;;;14.07;12.53;;;23.60;99.90;23.70;96941.00;;;;5064059;28;20671;-69
2021/08/15 06:56:38;;;;;;;13.50;12.30;;;23.60;99.90;23.90;96931.00;;;;5036878;28;20197;-69
2021/08/15 06:59:27;;;;;;;16.30;12.10;;;23.60;99.90;24.10;96930.00;;;;5043107;28;20743;-69
2021/08/15 07:02:16;;;;;;;13.67;10.77;;;23.70;99.90;24.30;96929.00;;;;5044630;28;20232;-69
2021/08/15 07:05:07;;;;;;;15.03;11.37;;;23.90;99.90;24.40;96916.00;;;;5047115;28;20211;-71
2021/08/15 07:07:57;;;;;;;13.30;11.80;;;24.00;99.90;24.40;96935.00;;;;5065808;28;20211;-70
2021/08/15 07:10:46;;;;;;;15.00;12.17;;;24.10;99.90;24.60;96928.00;;;;5058464;28;20220;-71
2021/08/15 07:13:35;;;;;;;12.77;11.30;;;24.30;99.90;25.10;96930.00;;;;5084045;28;20192;-68
2021/08/15 07:16:24;;;;;;;17.53;13.23;;;24.50;99.90;24.80;96921.00;;;;5083061;28;20721;-73
2021/08/15 07:19:13;;;;;;;15.17;11.47;;;24.60;99.90;25.00;96925.00;;;;5084691;28;20218;-72
2021/08/15 07:22:02;;;;;;;16.43;14.70;;;24.70;99.90;25.00;96931.00;;;;5076429;28;20250;-70
2021/08/15 07:24:52;;;;;;;12.13;10.93;;;24.80;99.90;25.10;96925.00;;;;5064004;28;20209;-69
2021/08/15 07:27:41;;;;;;;12.87;11.67;;;24.90;99.90;25.20;96926.00;;;;5080361;28;20580;-68
2021/08/15 07:30:32;;;;;;;21.03;12.37;;;24.90;99.90;25.30;96933.00;;;;5083919;28;20744;-68
2021/08/15 07:33:21;;;;;;;12.83;11.50;;;25.00;99.90;25.40;96937.00;;;;5084842;28;20202;-68
2021/08/15 07:36:10;;;;;;;12.43;11.20;;;25.00;99.90;25.40;96928.00;;;;5064410;28;20201;-68
2021/08/15 07:38:59;;;;;;;12.83;11.70;;;25.10;99.90;25.50;96945.00;;;;5082640;28;20205;-68
2021/08/15 07:41:50;;;;;;;12.90;11.57;;;25.20;99.90;25.30;96938.00;;;;5082945;28;20252;-68
2021/08/15 07:44:49;;;;;;;21.43;13.23;;;25.20;99.90;25.20;96945.00;;;;5082965;28;20206;-68
2021/08/15 07:47:38;;;;;;;13.73;12.20;;;25.10;99.90;25.00;96945.00;;;;5063939;28;20205;-67
2021/08/15 07:50:33;;;;;;;12.13;10.83;;;25.00;99.90;24.90;96945.00;;;;5061952;28;20273;-68
2021/08/15 07:53:25;;;;;;;14.03;11.97;;;24.90;99.90;24.70;96947.00;;;;5043499;28;20198;-67
2021/08/15 07:56:14;;;;;;;16.10;12.40;;;24.90;99.90;24.50;96946.00;;;;5047663;28;20702;-67
2021/08/15 07:59:04;;;;;;;15.10;13.07;;;24.70;99.90;24.50;96945.00;;;;5048138;28;20224;-67
2021/08/15 08:01:54;;;;;;;14.00;12.00;;;24.60;99.90;25.00;96941.00;;;;5047501;28;20654;-67
2021/08/15 08:04:44;;;;;;;14.03;12.53;;;24.70;99.90;25.10;96939.00;;;;5054946;28;20669;-67
2021/08/15 08:07:32;;;;;;;14.30;12.90;;;24.80;99.90;25.50;96924.00;;;;5066624;28;20291;-67
2021/08/15 08:10:21;;;;;;;16.30;12.67;;;25.00;99.90;26.00;96922.00;;;;5064909;28;20235;-67
2021/08/15 08:13:11;;;;;;;16.20;13.30;;;25.30;99.90;26.50;96931.00;;;;5066528;28;20195;-68
2021/08/15 08:16:01;;;;;;;13.47;11.63;;;25.60;99.90;26.40;96943.00;;;;5062161;28;20212;-68
2021/08/15 08:18:50;;;;;;;13.87;12.27;;;25.80;99.90;26.00;96935.00;;;;5057598;28;20657;-68
2021/08/15 08:21:39;;;;;;;13.47;11.67;;;25.80;99.90;26.20;96948.00;;;;5051111;28;20248;-67
2021/08/15 08:24:28;;;;;;;13.70;11.73;;;25.90;99.90;26.00;96951.00;;;;5058914;28;20211;-67
2021/08/15 08:27:20;;;;;;;14.60;12.00;;;25.80;99.90;26.00;96946.00;;;;5053650;28;20224;-66
2021/08/15 08:30:11;;;;;;;13.33;11.90;;;25.80;99.90;26.00;96940.00;;;;5052487;28;20753;-66
2021/08/15 08:33:02;;;;;;;13.67;12.10;;;25.80;99.90;25.80;96943.00;;;;5048453;28;20203;-66
2021/08/15 08:35:52;;;;;;;15.03;12.43;;;25.80;99.90;25.80;96936.00;;;;5043614;28;20193;-66
2021/08/15 08:38:41;;;;;;;12.47;11.37;;;25.80;99.90;25.90;96936.00;;;;5061447;28;20204;-67
2021/08/15 08:41:33;;;;;;;12.80;11.50;;;25.80;99.90;26.00;96926.00;;;;5082105;28;20236;-66
2021/08/15 08:44:22;;;;;;;14.30;12.80;;;25.80;99.90;26.30;96936.00;;;;5073580;28;20221;-67
2021/08/15 08:47:12;;;;;;;15.17;11.63;;;25.90;99.90;26.30;96937.00;;;;5065423;28;20229;-66
2021/08/15 08:50:02;;;;;;;12.57;11.30;;;26.00;99.90;26.50;96933.00;;;;5059887;28;20212;-66
2021/08/15 08:52:52;;;;;;;16.97;12.10;;;26.00;99.90;26.40;96933.00;;;;5058661;28;20233;-66
2021/08/15 08:55:41;;;;;;;14.47;11.67;;;26.10;99.90;26.40;96940.00;;;;5065774;28;21079;-66
2021/08/15 08:58:30;;;;;;;13.13;11.83;;;26.20;99.90;26.40;96935.00;;;;5062423;28;20201;-66
2021/08/15 09:01:19;;;;;;;13.13;11.80;;;26.20;99.90;26.30;96940.00;;;;5062598;28;20715;-67
2021/08/15 09:04:10;;;;;;;12.47;11.17;;;26.20;99.90;26.40;96926.00;;;;5065589;28;20209;-67
2021/08/15 09:07:10;;;;;;;14.00;11.70;;;26.30;99.90;26.50;96929.00;;;;5065556;28;20950;-67
2021/08/15 09:10:01;;;;;;;12.43;11.13;;;26.30;99.90;26.20;96927.00;;;;5066056;28;20215;-67
2021/08/15 09:12:50;;;;;;;13.97;12.20;;;26.30;99.90;26.30;96934.00;;;;5065478;28;20186;-67
2021/08/15 09:15:39;;;;;;;13.97;11.67;;;26.30;99.90;26.40;96928.00;;;;5047806;28;20205;-67
2021/08/15 09:18:29;;;;;;;14.80;13.33;;;26.30;99.90;26.40;96931.00;;;;5065930;28;20743;-67
2021/08/15 09:21:29;;;;;;;14.53;11.43;;;26.30;99.90;26.40;96923.00;;;;5065661;28;20605;-67
2021/08/15 09:24:19;;;;;;;14.10;12.13;;;26.30;99.90;26.40;96918.00;;;;5063888;28;20339;-67
2021/08/15 09:27:23;;;;;;;13.47;12.07;;;26.30;99.90;26.60;96908.00;;;;5065405;28;20225;-67
2021/08/15 09:30:17;;;;;;;12.27;11.17;;;26.30;99.90;26.50;96911.00;;;;5064459;28;20251;-67
2021/08/15 09:33:08;;;;;;;14.17;11.57;;;26.40;99.90;26.50;96912.00;;;;5063524;28;20244;-67
2021/08/15 09:35:57;;;;;;;15.87;11.97;;;26.40;99.90;26.80;96903.00;;;;5062034;28;20202;-68
2021/08/15 09:38:49;;;;;;;15.20;13.63;;;26.50;99.90;26.40;96906.00;;;;5059978;28;20206;-69
2021/08/15 09:41:42;;;;;;;17.57;13.33;;;26.50;99.90;26.40;96903.00;;;;5050833;28;20717;-68
2021/08/15 09:44:33;;;;;;;13.40;12.10;;;26.50;99.90;26.40;96895.00;;;;5083889;28;20196;-67
2021/08/15 09:47:25;;;;;;;15.83;12.07;;;26.50;99.90;26.70;96897.00;;;;5067699;28;20697;-68
2021/08/15 09:50:20;;;;;;;15.50;10.83;;;26.60;99.90;26.40;96897.00;;;;5072374;28;20393;-68
2021/08/15 09:53:24;;;;;;;12.57;11.37;;;26.50;99.90;26.50;96873.00;;;;5048266;28;20274;-67
2021/08/15 09:56:14;;;;;;;13.57;11.90;;;26.50;99.90;27.10;96871.00;;;;5086487;28;20258;-68
2021/08/15 09:59:16;;;;;;;13.17;11.87;;;26.70;99.90;26.90;96890.00;;;;5085920;28;20622;-67
2021/08/15 10:02:07;;;;;;;11.53;9.93;;;26.90;99.90;26.80;96884.00;;;;5085794;28;20228;-67
2021/08/15 10:05:08;;;;;;;11.73;10.60;;;26.90;99.90;27.00;96872.00;;;;5085930;28;20204;-68
2021/08/15 10:07:59;;;;;;;12.93;10.40;;;27.00;99.90;27.00;96891.00;;;;5084063;28;20236;-68
2021/08/15 10:10:49;;;;;;;12.13;10.33;;;27.10;99.90;26.80;96890.00;;;;5070750;28;20232;-68
2021/08/15 10:13:38;;;;;;;13.47;10.03;;;26.90;99.90;26.90;96894.00;;;;5085247;28;20201;-67
2021/08/15 10:16:32;;;;;;;12.10;9.87;;;26.80;99.90;27.00;96891.00;;;;5085508;28;20202;-68
2021/08/15 10:19:31;;;;;;;11.23;10.03;;;26.80;99.90;26.90;96880.00;;;;5086724;28;20236;-68
2021/08/15 10:22:23;;;;;;;12.93;11.57;;;26.80;99.90;26.90;96881.00;;;;5066324;28;20228;-68
2021/08/15 10:25:32;;;;;;;14.97;11.33;;;26.90;99.90;26.90;96875.00;;;;5064441;28;20216;-68
2021/08/15 10:28:40;;;;;;;13.17;10.03;;;26.90;99.90;26.90;96876.00;;;;5064850;28;20226;-68
2021/08/15 10:32:17;;;;;;;12.60;11.20;;;26.90;99.90;26.60;96871.00;;;;5072025;28;20613;-68
2021/08/15 10:35:17;;;;;;;15.20;11.83;;;26.80;99.90;26.30;96865.00;;;;5072808;28;20200;-68
2021/08/15 10:38:08;;;;;;;13.37;10.43;;;26.70;99.90;25.80;96854.00;;;;5075750;28;20209;-68
2021/08/15 10:40:58;;;;;;;14.83;10.93;;;26.50;99.90;25.80;96846.00;;;;5096975;28;20254;-66
2021/08/15 10:44:08;;;;;;;15.50;11.43;;;26.30;99.90;26.20;96829.00;;;;5077410;28;20206;-67
2021/08/15 10:47:17;;;;;;;13.90;10.50;;;26.30;99.90;26.80;96803.00;;;;5066532;28;20285;-67
2021/08/15 10:50:08;;;;;;;16.30;11.47;;;26.30;99.90;27.00;96815.00;;;;5067247;28;20221;-69
2021/08/15 10:52:57;;;;;;;12.97;10.17;;;26.60;99.90;27.40;96808.00;;;;5065605;28;20206;-68
2021/08/15 10:55:49;;;;;;;13.23;11.27;;;26.90;99.90;26.90;96770.00;;;;5065613;28;20205;-69
2021/08/15 10:58:40;;;;;;;12.73;10.10;;;27.00;99.90;26.60;96813.00;;;;5065594;28;20505;-70
2021/08/15 11:01:44;;;;;;;11.57;10.43;;;26.90;99.90;27.60;96757.00;;;;5066166;28;20240;-69
2021/08/15 11:04:56;;;;;;;14.10;10.40;;;27.10;99.90;27.90;96761.00;;;;5063950;28;20229;-68
2021/08/15 11:07:45;;;;;;;13.23;11.23;;;27.60;99.90;27.50;96800.00;;;;5072080;28;20233;-68
2021/08/15 11:11:04;;;;;;;13.73;9.73;;;27.60;99.90;27.40;96788.00;;;;5066599;28;20674;-68
2021/08/15 11:14:28;;;;;;;11.67;10.30;;;27.50;99.90;27.80;96772.00;;;;5075591;28;20202;-68
2021/08/15 11:17:17;;;;;;;12.73;11.43;;;27.50;99.90;28.00;96769.00;;;;5078872;28;20203;-68
2021/08/15 11:20:38;;;;;;;12.03;10.13;;;27.60;99.90;27.20;96780.00;;;;5065492;28;20200;-69
2021/08/15 11:23:31;;;;;;;11.37;10.30;;;27.60;99.90;27.50;96776.00;;;;5064138;28;20696;-70
2021/08/15 11:26:20;;;;;;;18.07;11.07;;;27.60;99.90;27.60;96711.00;;;;5084630;28;20196;-68
2021/08/15 11:29:09;;;;;;;13.27;11.83;;;27.50;99.90;28.70;96736.00;;;;5082262;28;20229;-67
2021/08/15 11:31:59;;;;;;;16.33;10.87;;;27.90;99.90;27.70;96766.00;;;;5077349;28;20238;-68
2021/08/15 11:34:55;;;;;;;10.80;9.73;;;27.80;99.90;27.10;96750.00;;;;5067249;28;20206;-69
2021/08/15 11:37:58;;;;;;;12.87;11.57;;;27.60;99.90;28.00;96756.00;;;;5074757;28;20192;-68
2021/08/15 11:40:50;;;;;;;10.43;9.37;;;27.60;99.90;28.10;96758.00;;;;5081432;28;21161;-68
2021/08/15 11:43:38;;;;;;;11.20;9.97;;;27.80;99.90;27.90;96759.00;;;;5077425;28;20575;-68
2021/08/15 11:46:27;;;;;;;11.73;10.53;;;27.80;99.90;28.40;96764.00;;;;5084953;28;20589;-67
2021/08/15 11:49:32;;;;;;;10.63;9.60;;;28.00;99.90;28.40;96760.00;;;;5085147;28;20236;-67
2021/08/15 11:52:24;;;;;;;11.70;10.60;;;28.10;99.90;28.50;96767.00;;;;5086384;28;20217;-68
2021/08/15 11:55:24;;;;;;;10.63;9.40;;;28.10;99.90;28.20;96769.00;;;;5087901;28;20196;-67
2021/08/15 11:58:13;;;;;;;11.13;9.60;;;28.10;99.90;28.30;96764.00;;;;5085019;28;20207;-67
2021/08/15 12:01:07;;;;;;;11.67;9.97;;;28.10;99.90;28.30;96753.00;;;;5086061;28;20221;-67
2021/08/15 12:04:00;;;;;;;13.20;10.73;;;28.10;99.90;28.70;96754.00;;;;5086377;28;20196;-67
2021/08/15 12:06:49;;;;;;;11.57;10.37;;;28.20;99.90;28.90;96749.00;;;;5079236;28;20674;-68
2021/08/15 12:09:39;;;;;;;12.20;10.03;;;28.40;99.90;28.70;96720.00;;;;5074548;28;20226;-67
2021/08/15 12:12:29;;;;;;;10.87;9.87;;;28.50;99.90;29.60;96663.00;;;;5067383;28;20217;-67
2021/08/15 12:15:23;;;;;;;11.85;10.55;;;28.90;99.90;30.20;96725.00;;;;5066622;28;20216;-68
2021/08/15 12:18:32;;;;;;;12.90;11.20;;;29.30;99.90;29.70;96709.00;;;;5066766;28;20283;-67
2021/08/15 12:21:26;;;;;;;11.02;9.93;;;29.40;99.90;29.80;96709.00;;;;5068256;28;20279;-67
2021/08/15 12:24:26;;;;;;;12.07;10.20;;;29.50;99.90;30.30;96725.00;;;;5075102;28;20199;-67